createdAt,value
2023-01-28T00:02:17.841Z,-2.10
2023-01-28T00:04:44.788Z,-2.00
2023-01-28T00:07:12.963Z,-2.10
2023-01-28T00:09:40.678Z,-2.10
2023-01-28T00:12:07.993Z,-2.20
2023-01-28T00:14:35.517Z,-2.30
2023-01-28T00:17:04.538Z,-2.30
2023-01-28T00:19:36.837Z,-2.40
2023-01-28T00:22:04.590Z,-2.30
2023-01-28T00:24:34.897Z,-2.20
2023-01-28T00:27:02.365Z,-2.10
2023-01-28T00:29:29.750Z,-2.10
2023-01-28T00:31:57.218Z,-2.00
2023-01-28T00:34:24.292Z,-2.00
2023-01-28T00:36:58.788Z,-2.00
2023-01-28T00:39:27.226Z,-2.00
2023-01-28T00:41:56.360Z,-1.90
2023-01-28T00:44:25.254Z,-1.90
2023-01-28T00:46:54.462Z,-2.10
2023-01-28T00:49:22.693Z,-2.10
2023-01-28T00:51:49.953Z,-2.20
2023-01-28T00:54:17.305Z,-2.20
2023-01-28T00:56:47.652Z,-2.30
2023-01-28T00:59:15.362Z,-2.20
2023-01-28T01:01:42.603Z,-2.40
2023-01-28T01:04:12.433Z,-2.50
2023-01-28T01:06:42.590Z,-2.50
2023-01-28T01:09:12.701Z,-2.50
2023-01-28T01:11:41.284Z,-2.60
2023-01-28T01:14:13.407Z,-2.60
2023-01-28T01:16:43.083Z,-2.60
2023-01-28T01:19:09.889Z,-2.60
2023-01-28T01:21:37.456Z,-2.60
2023-01-28T01:24:10.985Z,-2.70
2023-01-28T01:26:38.236Z,-2.80
2023-01-28T01:29:05.187Z,-2.80
2023-01-28T01:31:32.347Z,-2.70
2023-01-28T01:34:00.716Z,-2.70
2023-01-28T01:36:27.945Z,-2.60
2023-01-28T01:38:55.912Z,-2.60
2023-01-28T01:41:34.780Z,-2.60
2023-01-28T01:44:03.819Z,-2.60
2023-01-28T01:46:43.958Z,-2.60
2023-01-28T01:49:22.084Z,-2.60
2023-01-28T01:52:01.212Z,-2.60
2023-01-28T01:54:30.345Z,-2.40
2023-01-28T01:56:59.293Z,-2.40
2023-01-28T01:59:30.071Z,-2.40
2023-01-28T02:02:01.736Z,-2.40
2023-01-28T02:04:35.615Z,-2.30
2023-01-28T02:07:02.743Z,-2.30
2023-01-28T02:09:32.720Z,-2.30
2023-01-28T02:12:08.865Z,-2.20
2023-01-28T02:14:59.358Z,-2.30
2023-01-28T02:17:27.266Z,-2.30
2023-01-28T02:20:02.353Z,-2.30
2023-01-28T02:23:09.472Z,-2.30
2023-01-28T02:26:21.887Z,-2.30
2023-01-28T02:29:15.020Z,-2.30
2023-01-28T02:31:47.569Z,-2.30
2023-01-28T02:34:36.207Z,-2.20
2023-01-28T02:37:17.727Z,-2.20
2023-01-28T02:40:11.023Z,-2.30
2023-01-28T02:42:41.705Z,-2.30
2023-01-28T02:45:51.146Z,-2.30
2023-01-28T02:48:23.392Z,-2.30
2023-01-28T02:51:15.130Z,-2.30
2023-01-28T02:53:54.179Z,-2.40
2023-01-28T02:56:34.928Z,-2.30
2023-01-28T02:59:23.618Z,-2.30
2023-01-28T03:02:05.808Z,-2.40
2023-01-28T03:04:38.636Z,-2.30
2023-01-28T03:07:10.699Z,-2.30
2023-01-28T03:09:40.880Z,-2.40
2023-01-28T03:12:35.505Z,-2.40
2023-01-28T03:15:29.356Z,-2.30
2023-01-28T03:18:45.953Z,-2.40
2023-01-28T03:21:39.516Z,-2.40
2023-01-28T03:24:28.133Z,-2.30
2023-01-28T03:27:37.336Z,-2.30
2023-01-28T03:30:33.845Z,-2.30
2023-01-28T03:33:24.857Z,-2.30
2023-01-28T03:36:11.176Z,-2.30
2023-01-28T03:38:48.819Z,-2.30
2023-01-28T03:41:23.114Z,-2.40
2023-01-28T03:43:51.852Z,-2.30
2023-01-28T03:46:19.074Z,-2.30
2023-01-28T03:48:46.449Z,-2.30
2023-01-28T03:51:15.530Z,-2.30
2023-01-28T03:53:42.772Z,-2.30
2023-01-28T03:56:18.782Z,-2.30
2023-01-28T03:58:52.748Z,-2.30
2023-01-28T04:01:20.905Z,-2.30
2023-01-28T04:03:48.405Z,-2.40
2023-01-28T04:06:20.091Z,-2.30
2023-01-28T04:09:06.296Z,-2.30
2023-01-28T04:11:41.072Z,-2.40
2023-01-28T04:14:09.901Z,-2.40
2023-01-28T04:17:11.015Z,-2.30
2023-01-28T04:19:38.710Z,-2.30
2023-01-28T04:22:13.885Z,-2.40
2023-01-28T04:24:47.421Z,-2.40
2023-01-28T04:27:15.877Z,-2.30
2023-01-28T04:29:43.142Z,-2.40
2023-01-28T04:32:28.889Z,-2.40
2023-01-28T04:35:13.032Z,-2.30
2023-01-28T04:38:18.887Z,-2.40
2023-01-28T04:41:07.324Z,-2.40
2023-01-28T04:43:37.566Z,-2.40
2023-01-28T04:46:29.537Z,-2.30
2023-01-28T04:49:08.951Z,-2.30
2023-01-28T04:51:58.785Z,-2.30
2023-01-28T04:54:39.592Z,-2.30
2023-01-28T04:57:08.384Z,-2.30
2023-01-28T04:59:36.133Z,-2.30
2023-01-28T05:02:03.163Z,-2.30
2023-01-28T05:04:30.580Z,-2.30
2023-01-28T05:06:58.549Z,-2.30
2023-01-28T05:09:30.215Z,-2.30
2023-01-28T05:12:00.496Z,-2.20
2023-01-28T05:14:32.410Z,-2.20
2023-01-28T05:17:08.258Z,-2.20
2023-01-28T05:19:36.511Z,-2.20
2023-01-28T05:22:05.215Z,-2.30
2023-01-28T05:24:38.215Z,-2.20
2023-01-28T05:27:10.790Z,-2.20
2023-01-28T05:29:37.768Z,-2.20
2023-01-28T05:32:05.335Z,-2.20
2023-01-28T05:34:33.001Z,-2.20
2023-01-28T05:37:04.944Z,-2.20
2023-01-28T05:39:35.692Z,-2.20
2023-01-28T05:42:02.939Z,-2.20
2023-01-28T05:44:32.251Z,-2.10
2023-01-28T05:47:34.522Z,-2.20
2023-01-28T05:50:27.538Z,-2.20
2023-01-28T05:53:17.906Z,-2.20
2023-01-28T05:55:52.860Z,-2.20
2023-01-28T05:58:21.891Z,-2.30
2023-01-28T06:00:49.281Z,-2.30
2023-01-28T06:03:22.434Z,-2.30
2023-01-28T06:05:49.293Z,-2.30
2023-01-28T06:08:16.261Z,-2.20
2023-01-28T06:10:43.515Z,-2.30
2023-01-28T06:13:13.105Z,-2.20
2023-01-28T06:15:40.274Z,-2.30
2023-01-28T06:18:35.852Z,-2.30
2023-01-28T06:21:02.739Z,-2.20
2023-01-28T06:23:29.920Z,-2.20
2023-01-28T06:25:57.919Z,-2.30
2023-01-28T06:28:30.445Z,-2.30
2023-01-28T06:30:57.710Z,-2.30
2023-01-28T06:33:25.029Z,-2.30
2023-01-28T06:35:54.350Z,-2.30
2023-01-28T06:38:21.541Z,-2.20
2023-01-28T06:41:00.048Z,-2.20
2023-01-28T06:43:30.931Z,-2.30
2023-01-28T06:46:10.558Z,-2.40
2023-01-28T06:48:37.489Z,-2.30
2023-01-28T06:51:07.470Z,-2.30
2023-01-28T06:53:34.387Z,-2.30
2023-01-28T06:56:01.305Z,-2.40
2023-01-28T06:58:28.716Z,-2.40
2023-01-28T07:00:55.916Z,-2.40
2023-01-28T07:03:22.908Z,-2.30
2023-01-28T07:05:51.584Z,-2.30
2023-01-28T07:08:18.773Z,-2.40
2023-01-28T07:10:49.726Z,-2.30
2023-01-28T07:13:16.736Z,-2.40
2023-01-28T07:15:43.609Z,-2.40
2023-01-28T07:18:10.560Z,-2.30
2023-01-28T07:20:40.366Z,-2.40
2023-01-28T07:23:09.511Z,-2.40
2023-01-28T07:25:38.876Z,-2.40
2023-01-28T07:28:06.249Z,-2.40
2023-01-28T07:30:33.536Z,-2.50
2023-01-28T07:33:01.697Z,-2.40
2023-01-28T07:35:29.099Z,-2.40
2023-01-28T07:37:59.348Z,-2.40
2023-01-28T07:40:28.145Z,-2.40
2023-01-28T07:42:56.967Z,-2.30
2023-01-28T07:45:25.623Z,-2.40
2023-01-28T07:48:04.930Z,-2.40
2023-01-28T07:50:38.900Z,-2.40
2023-01-28T07:53:11.601Z,-2.40
2023-01-28T07:55:38.963Z,-2.30
2023-01-28T07:58:08.214Z,-2.30
2023-01-28T08:00:37.554Z,-2.30
2023-01-28T08:03:15.512Z,-2.30
2023-01-28T08:05:51.440Z,-2.30
2023-01-28T08:08:20.036Z,-2.20
2023-01-28T08:10:47.032Z,-2.30
2023-01-28T08:13:20.068Z,-2.30
2023-01-28T08:15:48.308Z,-2.30
2023-01-28T08:18:20.560Z,-2.30
2023-01-28T08:20:47.765Z,-2.30
2023-01-28T08:23:23.167Z,-2.20
2023-01-28T08:25:52.960Z,-2.20
2023-01-28T08:28:39.358Z,-2.20
2023-01-28T08:31:06.907Z,-2.20
2023-01-28T08:33:34.305Z,-2.20
2023-01-28T08:36:05.148Z,-2.20
2023-01-28T08:38:32.149Z,-2.20
2023-01-28T08:41:01.950Z,-2.20
2023-01-28T08:43:29.003Z,-2.20
2023-01-28T08:45:55.855Z,-2.10
2023-01-28T08:48:23.016Z,-2.10
2023-01-28T08:50:50.920Z,-2.20
2023-01-28T08:53:20.296Z,-2.10
2023-01-28T08:55:47.724Z,-2.10
2023-01-28T08:58:16.824Z,-2.10
2023-01-28T09:00:46.626Z,-2.00
2023-01-28T09:03:20.121Z,-2.00
2023-01-28T09:05:49.690Z,-2.10
2023-01-28T09:08:18.361Z,-2.10
2023-01-28T09:10:47.730Z,-2.10
2023-01-28T09:13:16.379Z,-2.10
2023-01-28T09:15:43.679Z,-2.10
2023-01-28T09:18:11.524Z,-2.10
2023-01-28T09:20:38.852Z,-2.00
2023-01-28T09:23:06.742Z,-2.00
2023-01-28T09:25:36.393Z,-2.00
2023-01-28T09:28:04.021Z,-2.00
2023-01-28T09:30:35.951Z,-2.00
2023-01-28T09:33:04.355Z,-1.90
2023-01-28T09:35:33.651Z,-1.80
2023-01-28T09:38:00.605Z,-1.90
2023-01-28T09:40:31.920Z,-1.90
2023-01-28T09:43:06.883Z,-1.90
2023-01-28T09:45:42.849Z,-1.80
2023-01-28T09:48:17.790Z,-1.90
2023-01-28T09:50:50.352Z,-1.90
2023-01-28T09:53:25.157Z,-1.80
2023-01-28T09:56:12.968Z,-1.80
2023-01-28T09:58:42.000Z,-1.80
2023-01-28T10:01:26.335Z,-1.80
2023-01-28T10:04:25.292Z,-1.80
2023-01-28T10:07:27.882Z,-1.80
2023-01-28T10:09:57.832Z,-1.70
2023-01-28T10:12:40.133Z,-1.70
2023-01-28T10:15:28.554Z,-1.70
2023-01-28T10:18:17.100Z,-1.80
2023-01-28T10:21:17.588Z,-1.80
2023-01-28T10:24:34.483Z,-1.70
2023-01-28T10:27:04.182Z,-1.60
2023-01-28T10:29:35.538Z,-1.60
2023-01-28T10:32:07.531Z,-1.60
2023-01-28T10:34:35.102Z,-1.70
2023-01-28T10:37:02.366Z,-1.60
2023-01-28T10:39:29.926Z,-1.70
2023-01-28T10:41:58.586Z,-1.60
2023-01-28T10:44:37.896Z,-1.70
2023-01-28T10:47:14.944Z,-1.70
2023-01-28T10:49:47.839Z,-1.70
2023-01-28T10:52:16.098Z,-1.70
2023-01-28T10:54:45.984Z,-1.70
2023-01-28T10:57:18.888Z,-1.70
2023-01-28T10:59:46.176Z,-1.60
2023-01-28T11:02:37.573Z,-1.60
2023-01-28T11:05:21.283Z,-1.60
2023-01-28T11:07:50.968Z,-1.50
2023-01-28T11:10:37.008Z,-1.60
2023-01-28T11:13:06.779Z,-1.50
2023-01-28T11:15:37.216Z,-1.50
2023-01-28T11:18:15.828Z,-1.40
2023-01-28T11:20:56.981Z,-1.50
2023-01-28T11:23:33.600Z,-1.50
2023-01-28T11:26:07.713Z,-1.50
2023-01-28T11:28:42.080Z,-1.50
2023-01-28T11:31:12.683Z,-1.50
2023-01-28T11:33:53.317Z,-1.40
2023-01-28T11:36:23.492Z,-1.50
2023-01-28T11:39:21.910Z,-1.50
2023-01-28T11:41:50.147Z,-1.40
2023-01-28T11:44:24.887Z,-1.40
2023-01-28T11:47:15.549Z,-1.40
2023-01-28T11:50:06.026Z,-1.40
2023-01-28T11:53:04.395Z,-1.40
2023-01-28T11:55:55.604Z,-1.40
2023-01-28T11:59:00.799Z,-1.40
2023-01-28T12:02:11.544Z,-1.40
2023-01-28T12:05:04.568Z,-1.50
2023-01-28T12:08:09.135Z,-1.40
2023-01-28T12:10:48.629Z,-1.40
2023-01-28T12:13:40.154Z,-1.10
2023-01-28T12:16:40.926Z,-1.30
2023-01-28T12:19:44.400Z,-1.20
2023-01-28T12:22:14.102Z,-1.20
2023-01-28T12:25:08.624Z,-1.00
2023-01-28T12:27:41.797Z,-0.90
2023-01-28T12:30:19.679Z,-0.80
2023-01-28T12:33:22.207Z,-0.80
2023-01-28T12:35:53.181Z,-0.90
2023-01-28T12:38:51.605Z,-1.00
2023-01-28T12:41:29.027Z,-1.10
2023-01-28T12:44:13.136Z,-1.20
2023-01-28T12:46:54.233Z,-1.20
2023-01-28T12:49:51.476Z,-1.30
2023-01-28T12:52:31.225Z,-1.40
2023-01-28T12:55:05.423Z,-1.30
2023-01-28T12:57:35.534Z,-1.30
2023-01-28T13:00:26.378Z,-1.30
2023-01-28T13:03:29.105Z,-1.40
2023-01-28T13:06:02.060Z,-1.30
2023-01-28T13:08:29.717Z,-1.30
2023-01-28T13:11:02.413Z,-1.20
2023-01-28T13:13:37.708Z,-1.30
2023-01-28T13:16:07.930Z,-1.30
2023-01-28T13:18:40.171Z,-1.30
2023-01-28T13:21:29.056Z,-1.40
2023-01-28T13:24:20.679Z,-1.40
2023-01-28T13:26:47.460Z,-1.40
2023-01-28T13:29:14.511Z,-1.50
2023-01-28T13:31:55.150Z,-1.40
2023-01-28T13:34:41.973Z,-1.60
2023-01-28T13:37:33.878Z,-1.50
2023-01-28T13:40:13.316Z,-1.50
2023-01-28T13:42:41.216Z,-1.50
2023-01-28T13:45:26.263Z,-1.40
2023-01-28T13:48:18.709Z,-1.40
2023-01-28T13:50:47.292Z,-1.40
2023-01-28T13:53:39.022Z,-1.40
2023-01-28T13:56:17.301Z,-1.40
2023-01-28T13:59:34.372Z,-1.40
2023-01-28T14:02:41.340Z,-1.40
2023-01-28T14:05:29.252Z,-1.40
2023-01-28T14:08:25.404Z,-1.30
2023-01-28T14:11:25.876Z,-1.30
2023-01-28T14:14:14.843Z,-1.20
2023-01-28T14:17:14.640Z,-1.10
2023-01-28T14:19:42.684Z,-1.20
2023-01-28T14:22:13.508Z,-1.30
2023-01-28T14:24:40.655Z,-1.50
2023-01-28T14:27:50.501Z,-1.50
2023-01-28T14:30:29.850Z,-1.50
2023-01-28T14:32:57.066Z,-1.50
2023-01-28T14:35:34.511Z,-1.50
2023-01-28T14:38:07.897Z,-1.40
2023-01-28T14:40:38.000Z,-1.50
2023-01-28T14:43:08.292Z,-1.50
2023-01-28T14:45:42.577Z,-1.60
2023-01-28T14:48:18.163Z,-1.50
2023-01-28T14:51:30.341Z,-1.50
2023-01-28T14:54:12.559Z,-1.40
2023-01-28T14:57:06.738Z,-1.30
2023-01-28T15:00:00.987Z,-1.30
2023-01-28T15:02:30.905Z,-1.30
2023-01-28T15:05:15.758Z,-1.40
2023-01-28T15:07:49.221Z,-1.50
2023-01-28T15:10:42.429Z,-1.60
2023-01-28T15:13:15.650Z,-1.60
2023-01-28T15:15:58.457Z,-1.80
2023-01-28T15:18:33.871Z,-1.90
2023-01-28T15:21:01.958Z,-2.00
2023-01-28T15:23:40.608Z,-2.20
2023-01-28T15:26:11.957Z,-2.40
2023-01-28T15:28:42.666Z,-2.60
2023-01-28T15:31:21.067Z,-2.70
2023-01-28T15:33:57.443Z,-2.90
2023-01-28T15:36:24.944Z,-3.10
2023-01-28T15:38:52.119Z,-3.20
2023-01-28T15:41:21.583Z,-3.30
2023-01-28T15:43:50.950Z,-3.40
2023-01-28T15:46:18.226Z,-3.50
2023-01-28T15:48:49.674Z,-3.50
2023-01-28T15:51:36.355Z,-3.60
2023-01-28T15:54:11.270Z,-3.70
2023-01-28T15:56:38.523Z,-3.80
2023-01-28T15:59:28.412Z,-3.90
2023-01-28T16:02:18.224Z,-3.90
2023-01-28T16:05:03.336Z,-4.10
2023-01-28T16:07:43.767Z,-4.10
2023-01-28T16:10:26.046Z,-4.10
2023-01-28T16:12:56.358Z,-4.10
2023-01-28T16:15:27.219Z,-4.20
2023-01-28T16:17:56.685Z,-4.20
2023-01-28T16:20:48.082Z,-4.40
2023-01-28T16:23:23.138Z,-4.50
2023-01-28T16:26:04.894Z,-4.50
2023-01-28T16:28:33.225Z,-4.50
2023-01-28T16:31:01.267Z,-4.50
2023-01-28T16:33:28.508Z,-4.50
2023-01-28T16:36:08.214Z,-4.60
2023-01-28T16:38:37.533Z,-4.60
2023-01-28T16:41:05.191Z,-4.60
2023-01-28T16:45:59.952Z,-4.50
2023-01-28T16:48:27.151Z,-4.50
2023-01-28T16:50:55.150Z,-4.50
2023-01-28T16:53:28.544Z,-4.60
2023-01-28T16:55:56.314Z,-4.60
2023-01-28T16:58:26.146Z,-4.70
2023-01-28T17:00:55.111Z,-4.70
2023-01-28T17:03:23.347Z,-4.70
2023-01-28T17:05:50.348Z,-4.70
2023-01-28T17:08:19.952Z,-4.60
2023-01-28T17:10:53.997Z,-4.60
2023-01-28T17:13:21.169Z,-4.50
2023-01-28T17:15:48.319Z,-4.40
2023-01-28T17:18:15.309Z,-4.40
2023-01-28T17:20:42.717Z,-4.30
2023-01-28T17:23:17.357Z,-4.40
2023-01-28T17:25:46.071Z,-4.50
2023-01-28T17:28:13.725Z,-4.70
2023-01-28T17:30:42.216Z,-4.90
2023-01-28T17:33:13.345Z,-4.90
2023-01-28T17:35:42.968Z,-5.00
2023-01-28T17:38:11.359Z,-5.10
2023-01-28T17:40:43.727Z,-5.10
2023-01-28T17:43:13.759Z,-5.00
2023-01-28T17:45:42.132Z,-5.00
2023-01-28T17:48:12.060Z,-5.00
2023-01-28T17:50:44.038Z,-5.00
2023-01-28T17:53:11.358Z,-5.10
2023-01-28T17:55:38.590Z,-5.00
2023-01-28T17:58:05.754Z,-4.90
2023-01-28T18:00:33.443Z,-4.80
2023-01-28T18:03:00.743Z,-4.70
2023-01-28T18:05:28.069Z,-4.60
2023-01-28T18:07:55.343Z,-4.50
2023-01-28T18:10:23.557Z,-4.40
2023-01-28T18:12:53.579Z,-4.30
2023-01-28T18:15:21.163Z,-4.20
2023-01-28T18:17:48.403Z,-4.10
2023-01-28T18:20:15.478Z,-4.10
2023-01-28T18:22:43.122Z,-4.10
2023-01-28T18:25:17.599Z,-4.00
2023-01-28T18:27:45.079Z,-3.90
2023-01-28T18:30:14.230Z,-3.90
2023-01-28T18:32:41.915Z,-3.80
2023-01-28T18:35:09.761Z,-3.90
2023-01-28T18:37:40.583Z,-3.90
2023-01-28T18:40:08.303Z,-3.90
2023-01-28T18:42:37.785Z,-3.90
2023-01-28T18:45:05.787Z,-3.80
2023-01-28T18:47:32.720Z,-3.70
2023-01-28T18:49:59.842Z,-3.70
2023-01-28T18:52:28.912Z,-3.70
2023-01-28T18:54:58.445Z,-3.70
2023-01-28T18:57:25.595Z,-3.70
2023-01-28T18:59:52.874Z,-3.60
2023-01-28T19:02:20.127Z,-3.70
2023-01-28T19:04:51.374Z,-3.70
2023-01-28T19:07:18.199Z,-3.60
2023-01-28T19:09:48.279Z,-3.60
2023-01-28T19:12:22.402Z,-3.60
2023-01-28T19:14:49.903Z,-3.60
2023-01-28T19:17:19.187Z,-3.50
2023-01-28T19:19:46.192Z,-3.60
2023-01-28T19:22:13.342Z,-3.60
2023-01-28T19:24:40.226Z,-3.60
2023-01-28T19:27:07.042Z,-3.60
2023-01-28T19:29:35.256Z,-3.50
2023-01-28T19:32:04.719Z,-3.60
2023-01-28T19:34:40.195Z,-3.60
2023-01-28T19:37:08.559Z,-3.50
2023-01-28T19:39:38.827Z,-3.60
2023-01-28T19:42:11.360Z,-3.60
2023-01-28T19:44:40.692Z,-3.50
2023-01-28T19:47:09.151Z,-3.60
2023-01-28T19:49:39.622Z,-3.60
2023-01-28T19:52:10.905Z,-3.50
2023-01-28T19:54:38.091Z,-3.60
2023-01-28T19:57:05.284Z,-3.50
2023-01-28T19:59:36.771Z,-3.50
2023-01-28T20:02:03.878Z,-3.60
2023-01-28T20:04:30.664Z,-3.60
2023-01-28T20:06:57.794Z,-3.60
2023-01-28T20:09:26.957Z,-3.70
2023-01-28T20:11:56.392Z,-3.60
2023-01-28T20:14:23.679Z,-3.70
2023-01-28T20:16:50.521Z,-3.70
2023-01-28T20:19:20.456Z,-3.70
2023-01-28T20:21:50.602Z,-3.70
2023-01-28T20:24:17.746Z,-3.70
2023-01-28T20:26:45.232Z,-3.70
2023-01-28T20:29:19.357Z,-3.60
2023-01-28T20:31:54.701Z,-3.70
2023-01-28T20:34:24.370Z,-3.70
2023-01-28T20:36:51.979Z,-3.80
2023-01-28T20:39:19.257Z,-3.70
2023-01-28T20:41:46.292Z,-3.80
2023-01-28T20:44:13.317Z,-3.80
2023-01-28T20:46:42.554Z,-3.80
2023-01-28T20:49:10.369Z,-3.80
2023-01-28T20:51:39.204Z,-3.90
2023-01-28T20:54:09.028Z,-3.90
2023-01-28T20:56:36.239Z,-3.80
2023-01-28T20:59:07.725Z,-3.90
2023-01-28T21:01:35.498Z,-3.90
2023-01-28T21:04:03.299Z,-3.80
2023-01-28T21:06:30.344Z,-3.80
2023-01-28T21:08:57.662Z,-3.90
2023-01-28T21:11:28.724Z,-3.90
2023-01-28T21:13:57.456Z,-3.90
2023-01-28T21:16:28.539Z,-3.90
2023-01-28T21:18:55.884Z,-4.00
2023-01-28T21:21:28.268Z,-4.10
2023-01-28T21:23:58.170Z,-4.20
2023-01-28T21:26:28.409Z,-4.30
2023-01-28T21:28:56.616Z,-4.30
2023-01-28T21:31:27.924Z,-4.40
2023-01-28T21:33:57.471Z,-4.40
2023-01-28T21:36:26.266Z,-4.40
2023-01-28T21:38:58.520Z,-4.50
2023-01-28T21:41:31.730Z,-4.60
2023-01-28T21:43:59.328Z,-4.50
2023-01-28T21:46:33.418Z,-4.50
2023-01-28T21:49:03.977Z,-4.50
2023-01-28T21:51:45.707Z,-4.50
2023-01-28T21:54:14.461Z,-4.50
2023-01-28T21:56:44.356Z,-4.50
2023-01-28T21:59:31.670Z,-4.60
2023-01-28T22:02:01.730Z,-4.40
2023-01-28T22:04:44.596Z,-4.40
2023-01-28T22:07:13.992Z,-4.50
2023-01-28T22:09:42.656Z,-4.40
2023-01-28T22:12:15.171Z,-4.40
2023-01-28T22:14:45.523Z,-4.40
2023-01-28T22:17:13.720Z,-4.40
2023-01-28T22:19:48.099Z,-4.30
2023-01-28T22:22:15.984Z,-4.30
2023-01-28T22:24:42.845Z,-4.30
2023-01-28T22:27:10.016Z,-4.30
2023-01-28T22:29:37.374Z,-4.20
2023-01-28T22:32:05.705Z,-4.30
2023-01-28T22:34:34.199Z,-4.20
2023-01-28T22:37:01.062Z,-4.30
2023-01-28T22:39:30.562Z,-4.20
2023-01-28T22:41:59.203Z,-4.20
2023-01-28T22:44:27.209Z,-4.30
2023-01-28T22:46:54.050Z,-4.30
2023-01-28T22:49:23.578Z,-4.30
2023-01-28T22:51:52.903Z,-4.30
2023-01-28T22:54:23.694Z,-4.40
2023-01-28T22:56:51.997Z,-4.30
2023-01-28T22:59:19.234Z,-4.40
2023-01-28T23:01:48.761Z,-4.40
2023-01-28T23:04:17.491Z,-4.50
2023-01-28T23:06:44.935Z,-4.40
2023-01-28T23:09:12.087Z,-4.40
2023-01-28T23:11:39.873Z,-4.50
2023-01-28T23:14:25.336Z,-4.70
2023-01-28T23:17:11.300Z,-4.70
2023-01-28T23:19:57.153Z,-4.70
2023-01-28T23:22:50.270Z,-4.90
2023-01-28T23:25:18.245Z,-5.00
2023-01-28T23:27:47.859Z,-5.00
2023-01-28T23:30:15.695Z,-5.00
2023-01-28T23:32:47.217Z,-4.90
2023-01-28T23:35:14.568Z,-5.00
2023-01-28T23:37:41.691Z,-5.00
2023-01-28T23:40:09.025Z,-5.00
2023-01-28T23:42:35.854Z,-4.90
2023-01-28T23:45:06.326Z,-4.80
2023-01-28T23:47:33.258Z,-4.70
2023-01-28T23:50:00.811Z,-4.70
2023-01-28T23:52:28.104Z,-4.60
2023-01-28T23:54:55.432Z,-4.60
2023-01-28T23:57:22.597Z,-4.60
2023-01-28T23:59:51.564Z,-4.60
